Time;durP1;ratioP1;P1;durP2;ratioP2;P2;SDS_P1;SDS_P2;PMS_P1;PMS_P2;Temp;Humidity;BMP_temperature;BMP_pressure;BME280_temperature;BME280_humidity;BME280_pressure;Samples;Min_cycle;Max_cycle;Signal;HPM_P1;HPM_P2
2024/02/06 00:02:01;;;;;;;133.07;72.37;;;5.30;95.90;;;;;;6278055;22;20215;-58
2024/02/06 00:04:28;;;;;;;133.37;73.87;;;5.30;95.90;;;;;;6277562;22;20537;-58
2024/02/06 00:06:56;;;;;;;131.80;73.03;;;5.30;96.00;;;;;;6277845;22;20574;-58
2024/02/06 00:09:23;;;;;;;107.63;58.70;;;5.30;96.10;;;;;;6277892;22;20625;-58
2024/02/06 00:11:50;;;;;;;97.00;52.57;;;5.30;96.30;;;;;;6277861;22;20181;-58
2024/02/06 00:14:17;;;;;;;87.57;52.67;;;5.40;96.30;;;;;;6277466;22;20181;-58
2024/02/06 00:16:45;;;;;;;102.77;54.87;;;5.40;96.30;;;;;;6277847;22;20181;-58
2024/02/06 00:19:13;;;;;;;105.70;60.10;;;5.30;96.20;;;;;;6277873;22;20227;-59
2024/02/06 00:21:40;;;;;;;105.80;57.80;;;5.30;96.40;;;;;;6277941;22;20181;-58
2024/02/06 00:24:07;;;;;;;106.30;57.50;;;5.30;96.00;;;;;;6277459;22;20635;-58
2024/02/06 00:26:34;;;;;;;112.60;64.27;;;5.20;96.00;;;;;;6277537;22;20165;-58
2024/02/06 00:29:01;;;;;;;88.23;47.40;;;5.20;96.00;;;;;;6277580;22;20234;-58
2024/02/06 00:31:28;;;;;;;77.30;44.30;;;5.20;96.00;;;;;;6277470;22;20654;-58
2024/02/06 00:33:56;;;;;;;78.03;46.40;;;5.20;96.00;;;;;;6276132;22;20177;-58
2024/02/06 00:36:23;;;;;;;97.03;52.93;;;5.10;95.80;;;;;;6277235;22;20263;-58
2024/02/06 00:38:50;;;;;;;84.97;49.10;;;5.10;95.70;;;;;;6276817;22;20260;-58
2024/02/06 00:41:17;;;;;;;154.03;79.80;;;5.10;95.70;;;;;;6277553;22;20200;-58
2024/02/06 00:43:44;;;;;;;103.80;56.90;;;5.10;95.70;;;;;;6276490;22;20196;-58
2024/02/06 00:46:11;;;;;;;84.83;50.47;;;5.00;95.90;;;;;;6277697;22;20177;-58
2024/02/06 00:48:38;;;;;;;105.10;56.77;;;5.10;96.00;;;;;;6277463;22;20252;-58
2024/02/06 00:51:08;;;;;;;113.03;58.53;;;5.00;95.90;;;;;;6277365;22;20169;-58
2024/02/06 00:53:36;;;;;;;121.27;62.33;;;5.00;95.70;;;;;;6277405;22;20591;-58
2024/02/06 00:56:06;;;;;;;98.57;54.27;;;5.00;95.70;;;;;;6277162;22;20176;-58
2024/02/06 00:58:33;;;;;;;92.97;51.60;;;5.00;95.80;;;;;;6276315;22;20180;-58
2024/02/06 01:01:01;;;;;;;101.50;57.10;;;4.90;95.70;;;;;;6277299;22;20211;-58
2024/02/06 01:03:28;;;;;;;116.07;64.67;;;4.90;95.70;;;;;;6277241;22;20173;-58
2024/02/06 01:05:55;;;;;;;110.43;60.37;;;4.90;95.80;;;;;;6277576;22;20475;-58
2024/02/06 01:08:22;;;;;;;106.00;60.77;;;4.90;95.90;;;;;;6277225;22;20165;-58
2024/02/06 01:10:49;;;;;;;106.40;60.57;;;4.90;95.90;;;;;;6276360;22;20169;-58
2024/02/06 01:13:16;;;;;;;117.23;64.93;;;4.90;96.00;;;;;;6277498;22;20619;-58
2024/02/06 01:15:43;;;;;;;127.13;66.30;;;4.90;96.00;;;;;;6277239;22;20166;-58
2024/02/06 01:18:10;;;;;;;124.90;65.53;;;4.90;96.10;;;;;;6277174;22;20185;-58
2024/02/06 01:20:38;;;;;;;128.93;71.53;;;4.90;96.10;;;;;;6250699;22;20203;-58
2024/02/06 01:23:05;;;;;;;137.73;75.47;;;5.00;96.20;;;;;;6276827;22;20452;-58
2024/02/06 01:25:32;;;;;;;135.87;75.67;;;5.00;96.30;;;;;;6276679;22;20188;-58
2024/02/06 01:27:59;;;;;;;156.97;82.03;;;5.00;96.40;;;;;;6277282;22;20183;-58
2024/02/06 01:30:27;;;;;;;129.93;72.17;;;5.00;96.50;;;;;;6276697;22;20531;-58
2024/02/06 01:32:55;;;;;;;129.17;71.93;;;5.10;96.70;;;;;;6276774;22;20169;-58
2024/02/06 01:35:23;;;;;;;111.37;60.40;;;5.10;96.70;;;;;;6276950;22;20208;-58
2024/02/06 01:37:50;;;;;;;111.57;60.17;;;5.10;96.60;;;;;;6249752;22;20254;-58
2024/02/06 01:40:17;;;;;;;120.83;65.07;;;5.10;96.50;;;;;;6276367;22;20204;-58
2024/02/06 01:42:44;;;;;;;131.10;69.47;;;5.10;96.50;;;;;;6276195;22;20499;-58
2024/02/06 01:45:12;;;;;;;140.33;76.60;;;5.10;96.40;;;;;;6276312;22;20201;-58
2024/02/06 01:47:39;;;;;;;118.63;66.07;;;5.10;96.50;;;;;;6276647;22;20189;-58
2024/02/06 01:50:07;;;;;;;137.47;73.43;;;5.00;96.50;;;;;;6276929;22;20169;-58
2024/02/06 01:52:34;;;;;;;119.77;71.27;;;5.00;96.60;;;;;;6276533;22;20632;-58
2024/02/06 01:55:02;;;;;;;134.07;74.93;;;5.00;96.60;;;;;;6276353;22;20177;-59
2024/02/06 01:57:32;;;;;;;140.53;72.30;;;5.00;96.60;;;;;;6250020;22;20181;-58
2024/02/06 02:00:00;;;;;;;126.80;73.97;;;5.00;96.70;;;;;;6276443;22;20611;-58
2024/02/06 02:02:27;;;;;;;145.00;74.53;;;4.90;96.80;;;;;;6276692;22;20291;-58
2024/02/06 02:04:54;;;;;;;130.03;72.73;;;5.00;96.80;;;;;;6276214;22;20189;-58
2024/02/06 02:07:21;;;;;;;142.43;74.20;;;5.00;96.90;;;;;;6276923;22;20514;-58
2024/02/06 02:09:49;;;;;;;133.77;70.53;;;4.90;96.90;;;;;;6276509;22;20174;-58
2024/02/06 02:12:16;;;;;;;143.37;74.30;;;4.90;96.90;;;;;;6276623;22;20180;-58
2024/02/06 02:14:43;;;;;;;150.80;74.13;;;4.90;96.90;;;;;;6276454;22;20252;-58
2024/02/06 02:17:10;;;;;;;135.13;73.70;;;4.90;96.90;;;;;;6276641;22;20181;-58
2024/02/06 02:19:37;;;;;;;128.57;68.57;;;4.80;97.00;;;;;;6276478;22;20204;-60
2024/02/06 02:22:04;;;;;;;146.07;75.47;;;4.80;97.00;;;;;;6276229;22;20181;-58
2024/02/06 02:24:31;;;;;;;151.23;77.53;;;4.80;97.00;;;;;;6276464;22;20295;-58
2024/02/06 02:26:59;;;;;;;135.93;73.70;;;4.80;97.00;;;;;;6276834;22;20187;-58
2024/02/06 02:29:26;;;;;;;133.67;70.77;;;4.80;97.20;;;;;;6276751;22;20172;-58
2024/02/06 02:31:54;;;;;;;134.00;71.93;;;4.80;97.20;;;;;;6276296;22;20169;-58
2024/02/06 02:34:21;;;;;;;128.97;69.43;;;4.80;97.20;;;;;;6276529;22;20184;-58
2024/02/06 02:36:49;;;;;;;130.53;70.60;;;4.80;97.20;;;;;;6275997;22;20176;-58
2024/02/06 02:39:16;;;;;;;141.40;74.07;;;4.80;97.20;;;;;;6275850;22;20201;-57
2024/02/06 02:41:43;;;;;;;134.07;71.63;;;4.80;97.00;;;;;;6275652;22;20186;-58
2024/02/06 02:44:10;;;;;;;136.10;71.40;;;4.70;97.00;;;;;;6276330;22;20263;-57
2024/02/06 02:46:37;;;;;;;141.10;72.40;;;4.70;97.10;;;;;;6276071;22;20230;-57
2024/02/06 02:49:04;;;;;;;127.43;73.10;;;4.70;97.20;;;;;;6276717;22;20168;-58
2024/02/06 02:51:32;;;;;;;128.27;71.77;;;4.70;97.20;;;;;;6274750;22;20176;-58
2024/02/06 02:53:59;;;;;;;131.40;69.77;;;4.70;97.20;;;;;;6275877;22;20177;-58
2024/02/06 02:56:27;;;;;;;138.90;73.33;;;4.70;97.20;;;;;;6276132;22;20234;-58
2024/02/06 02:58:54;;;;;;;127.77;71.60;;;4.60;97.20;;;;;;6276081;22;20177;-58
2024/02/06 03:01:21;;;;;;;132.10;68.30;;;4.60;97.20;;;;;;6276340;22;20187;-58
2024/02/06 03:03:48;;;;;;;140.00;72.03;;;4.60;97.30;;;;;;6275964;22;20655;-58
2024/02/06 03:06:19;;;;;;;123.20;69.23;;;4.60;97.30;;;;;;6275960;22;20243;-58
2024/02/06 03:08:46;;;;;;;134.63;70.50;;;4.50;97.30;;;;;;6276142;22;20154;-58
2024/02/06 03:11:13;;;;;;;133.97;72.67;;;4.50;97.20;;;;;;6275927;22;20173;-58
2024/02/06 03:13:42;;;;;;;114.20;64.40;;;4.50;97.30;;;;;;6275658;22;20169;-58
2024/02/06 03:16:09;;;;;;;128.03;70.70;;;4.50;97.30;;;;;;6275995;22;20176;-58
2024/02/06 03:18:37;;;;;;;128.47;70.00;;;4.50;97.20;;;;;;6276029;22;20192;-58
2024/02/06 03:21:05;;;;;;;121.80;69.33;;;4.50;97.20;;;;;;6276126;22;20177;-58
2024/02/06 03:23:32;;;;;;;124.23;69.17;;;4.40;97.30;;;;;;6275942;22;20514;-58
2024/02/06 03:25:59;;;;;;;115.37;67.97;;;4.40;97.40;;;;;;6275612;22;20536;-58
2024/02/06 03:28:26;;;;;;;143.73;74.00;;;4.40;97.40;;;;;;6275813;22;20172;-58
2024/02/06 03:30:54;;;;;;;126.10;71.87;;;4.40;97.40;;;;;;6275846;22;20268;-58
2024/02/06 03:33:21;;;;;;;123.17;67.07;;;4.40;97.60;;;;;;6275822;22;20226;-58
2024/02/06 03:35:48;;;;;;;110.83;64.87;;;4.40;97.70;;;;;;6277981;22;20165;-58
2024/02/06 03:38:18;;;;;;;115.73;63.63;;;4.40;97.80;;;;;;6278004;22;20180;-58
2024/02/06 03:40:44;;;;;;;124.33;66.40;;;4.40;97.70;;;;;;6277873;22;20262;-58
2024/02/06 03:43:12;;;;;;;122.20;66.13;;;4.30;97.70;;;;;;6277972;22;20251;-58
2024/02/06 03:45:39;;;;;;;122.17;67.57;;;4.30;97.60;;;;;;6277558;22;20251;-58
2024/02/06 03:48:06;;;;;;;116.90;65.40;;;4.30;97.50;;;;;;6250415;22;20193;-58
2024/02/06 03:50:33;;;;;;;116.40;67.80;;;4.20;97.50;;;;;;6277817;22;20178;-58
2024/02/06 03:53:01;;;;;;;108.60;64.10;;;4.20;97.60;;;;;;6277629;22;20199;-58
2024/02/06 03:55:28;;;;;;;128.53;69.83;;;4.10;97.60;;;;;;6277808;22;20173;-58
2024/02/06 03:57:55;;;;;;;127.40;65.80;;;4.10;97.60;;;;;;6277783;22;20177;-58
2024/02/06 04:00:23;;;;;;;132.47;70.57;;;4.10;97.60;;;;;;6277924;22;20482;-58
2024/02/06 04:02:50;;;;;;;136.07;69.67;;;4.10;97.60;;;;;;6278034;22;20180;-58
2024/02/06 04:05:17;;;;;;;114.07;65.80;;;4.00;97.60;;;;;;6277403;22;20616;-58
2024/02/06 04:07:44;;;;;;;110.87;62.67;;;4.00;97.70;;;;;;6277816;22;20534;-58
2024/02/06 04:10:11;;;;;;;124.10;68.63;;;4.00;97.60;;;;;;6278158;22;20177;-58
2024/02/06 04:12:38;;;;;;;135.60;65.73;;;3.90;97.60;;;;;;6277319;22;20460;-58
2024/02/06 04:15:08;;;;;;;122.83;66.77;;;3.90;97.60;;;;;;6277470;22;20183;-57
2024/02/06 04:17:35;;;;;;;116.57;64.10;;;3.90;97.60;;;;;;6277454;22;20176;-58
2024/02/06 04:20:02;;;;;;;112.87;64.00;;;3.90;97.60;;;;;;6277522;22;20185;-58
2024/02/06 04:22:30;;;;;;;133.40;70.37;;;3.90;97.60;;;;;;6277809;22;20181;-58
2024/02/06 04:24:57;;;;;;;132.87;70.30;;;3.90;97.60;;;;;;6276822;22;20272;-58
2024/02/06 04:27:24;;;;;;;120.53;64.30;;;3.80;97.60;;;;;;6277450;22;20840;-58
2024/02/06 04:29:51;;;;;;;114.73;61.97;;;3.80;97.80;;;;;;6250750;22;20255;-58
2024/02/06 04:32:18;;;;;;;118.17;64.10;;;3.80;97.40;;;;;;6277953;22;20223;-58
2024/02/06 04:34:45;;;;;;;119.00;65.27;;;3.80;97.50;;;;;;6227133;22;20184;-58
2024/02/06 04:37:13;;;;;;;119.33;69.13;;;3.80;97.50;;;;;;6278070;22;20189;-58
2024/02/06 04:39:41;;;;;;;112.83;63.70;;;3.80;97.50;;;;;;6252727;22;20505;-58
2024/02/06 04:42:08;;;;;;;107.07;58.77;;;3.80;97.50;;;;;;6251997;22;20229;-59
2024/02/06 04:44:36;;;;;;;107.63;60.27;;;3.80;97.70;;;;;;6251407;22;20197;-58
2024/02/06 04:47:03;;;;;;;106.37;62.07;;;3.80;97.60;;;;;;6252079;22;20611;-58
2024/02/06 04:49:31;;;;;;;108.40;62.83;;;3.80;97.50;;;;;;6279146;22;20172;-58
2024/02/06 04:51:59;;;;;;;107.37;59.53;;;3.80;97.50;;;;;;6251830;22;20604;-58
2024/02/06 04:54:26;;;;;;;119.47;64.77;;;3.80;97.50;;;;;;6277780;22;20180;-58
2024/02/06 04:56:54;;;;;;;112.30;63.27;;;3.80;97.50;;;;;;6278614;22;20166;-58
2024/02/06 04:59:21;;;;;;;103.87;60.57;;;3.80;97.40;;;;;;6279097;22;20169;-58
2024/02/06 05:01:49;;;;;;;114.13;64.17;;;3.80;97.40;;;;;;6251972;22;20234;-59
2024/02/06 05:04:17;;;;;;;121.00;64.63;;;3.80;97.40;;;;;;6252814;22;20242;-58
2024/02/06 05:06:45;;;;;;;116.33;65.13;;;3.80;97.40;;;;;;6278639;22;20165;-58
2024/02/06 05:09:13;;;;;;;126.87;65.73;;;3.80;97.40;;;;;;6252331;22;20202;-58
2024/02/06 05:11:41;;;;;;;117.37;62.63;;;3.80;97.40;;;;;;6202036;22;20184;-58
2024/02/06 05:14:09;;;;;;;120.57;62.93;;;3.80;97.50;;;;;;6278558;22;20263;-59
2024/02/06 05:16:36;;;;;;;238.67;66.10;;;3.80;97.40;;;;;;6278454;22;20180;-59
2024/02/06 05:19:03;;;;;;;117.50;63.53;;;3.80;97.50;;;;;;6252129;22;20181;-59
2024/02/06 05:21:31;;;;;;;122.20;66.63;;;3.80;97.50;;;;;;6278626;22;20246;-59
2024/02/06 05:23:58;;;;;;;179.40;68.20;;;3.80;97.50;;;;;;6251444;22;20204;-59
2024/02/06 05:26:26;;;;;;;134.87;64.73;;;3.80;97.70;;;;;;6251772;22;20192;-58
2024/02/06 05:28:53;;;;;;;127.07;64.50;;;3.80;97.60;;;;;;6278538;22;20280;-59
2024/02/06 05:31:20;;;;;;;148.90;61.13;;;3.80;97.60;;;;;;6226625;22;20912;-59
2024/02/06 05:33:47;;;;;;;146.40;61.20;;;3.80;97.60;;;;;;6251501;22;20180;-58
2024/02/06 05:36:15;;;;;;;99.97;56.37;;;3.80;97.60;;;;;;6226413;22;20184;-59
2024/02/06 05:38:42;;;;;;;110.17;56.87;;;3.80;97.60;;;;;;6251958;22;20180;-59
2024/02/06 05:41:13;;;;;;;117.20;53.20;;;3.80;97.70;;;;;;6278119;22;20254;-58
2024/02/06 05:43:40;;;;;;;138.97;53.77;;;3.70;97.60;;;;;;6277956;22;20167;-58
2024/02/06 05:46:08;;;;;;;138.37;54.63;;;3.70;97.60;;;;;;6226234;22;20495;-58
2024/02/06 05:48:36;;;;;;;153.30;57.93;;;3.70;97.60;;;;;;6251748;22;20662;-60
2024/02/06 05:51:08;;;;;;;173.17;62.97;;;3.70;97.70;;;;;;6227173;22;20496;-58
2024/02/06 05:53:35;;;;;;;202.50;61.20;;;3.70;97.70;;;;;;6278107;22;20176;-59
2024/02/06 05:56:04;;;;;;;472.07;70.30;;;3.70;97.80;;;;;;6278564;22;20188;-58
2024/02/06 05:58:32;;;;;;;255.70;63.53;;;3.70;97.90;;;;;;6226508;22;20615;-58
2024/02/06 06:01:00;;;;;;;202.27;56.03;;;3.70;97.80;;;;;;6252498;22;20290;-58
2024/02/06 06:03:27;;;;;;;172.63;60.77;;;3.70;97.90;;;;;;6226415;22;20242;-58
2024/02/06 06:05:56;;;;;;;158.53;59.57;;;3.60;98.00;;;;;;6227038;22;20665;-58
2024/02/06 06:08:24;;;;;;;153.63;59.00;;;3.60;98.20;;;;;;6278545;22;20195;-58
2024/02/06 06:10:51;;;;;;;217.03;66.83;;;3.60;98.20;;;;;;6277717;22;20178;-59
2024/02/06 06:13:19;;;;;;;150.00;59.23;;;3.70;98.40;;;;;;6251812;22;20312;-59
2024/02/06 06:15:46;;;;;;;163.07;56.73;;;3.60;98.40;;;;;;6251736;22;20644;-59
2024/02/06 06:18:14;;;;;;;132.97;56.50;;;3.70;98.40;;;;;;6251262;22;20254;-58
2024/02/06 06:20:42;;;;;;;165.47;56.70;;;3.60;98.30;;;;;;6251693;22;20192;-59
2024/02/06 06:23:10;;;;;;;129.00;56.20;;;3.60;98.40;;;;;;6251887;22;20176;-59
2024/02/06 06:25:39;;;;;;;128.43;60.23;;;3.60;98.30;;;;;;6227072;22;20245;-59
2024/02/06 06:28:08;;;;;;;150.03;60.73;;;3.60;98.40;;;;;;6251973;22;20226;-58
2024/02/06 06:30:35;;;;;;;175.70;59.40;;;3.60;98.60;;;;;;6227206;22;20599;-59
2024/02/06 06:33:03;;;;;;;157.33;60.63;;;3.60;98.70;;;;;;6251535;22;20165;-58
2024/02/06 06:35:31;;;;;;;165.03;63.77;;;3.60;98.70;;;;;;6278335;22;20202;-59
2024/02/06 06:37:58;;;;;;;197.87;62.73;;;3.60;98.80;;;;;;6251833;22;20251;-59
2024/02/06 06:40:26;;;;;;;202.10;61.60;;;3.70;98.90;;;;;;6277545;22;20215;-59
2024/02/06 06:42:54;;;;;;;340.70;65.47;;;3.70;98.90;;;;;;6251580;22;20200;-59
2024/02/06 06:45:22;;;;;;;174.90;63.00;;;3.70;98.90;;;;;;6277789;22;20199;-59
2024/02/06 06:47:50;;;;;;;255.23;64.07;;;3.70;99.00;;;;;;6251289;22;20174;-59
2024/02/06 06:50:17;;;;;;;186.67;58.93;;;3.70;99.10;;;;;;6226068;22;20180;-59
2024/02/06 06:52:45;;;;;;;174.60;57.80;;;3.70;99.10;;;;;;6225530;22;20200;-59
2024/02/06 06:55:13;;;;;;;180.27;55.50;;;3.70;99.30;;;;;;6278089;22;20184;-59
2024/02/06 06:57:42;;;;;;;247.33;54.87;;;3.80;99.40;;;;;;6277617;22;20171;-59
2024/02/06 07:00:12;;;;;;;234.37;54.90;;;3.80;99.40;;;;;;6277858;22;20477;-59
2024/02/06 07:02:40;;;;;;;102.10;52.80;;;3.80;99.50;;;;;;6251504;22;20183;-59
2024/02/06 07:05:12;;;;;;;112.67;49.23;;;3.90;99.50;;;;;;6225654;22;20223;-59
2024/02/06 07:07:39;;;;;;;144.57;50.43;;;3.90;99.50;;;;;;6277521;22;20172;-58
2024/02/06 07:10:08;;;;;;;108.43;50.83;;;3.90;99.50;;;;;;6251227;22;20181;-59
2024/02/06 07:12:35;;;;;;;125.87;50.50;;;3.90;99.40;;;;;;6278188;22;20199;-58
2024/02/06 07:15:03;;;;;;;207.43;49.83;;;3.90;99.40;;;;;;6250967;22;20176;-58
2024/02/06 07:17:31;;;;;;;110.30;47.40;;;3.90;99.40;;;;;;6251161;22;20236;-59
2024/02/06 07:19:59;;;;;;;136.63;47.87;;;3.90;99.50;;;;;;6251139;22;20173;-59
2024/02/06 07:22:27;;;;;;;133.17;50.90;;;3.90;99.60;;;;;;6226046;22;20231;-59
2024/02/06 07:24:55;;;;;;;122.77;54.83;;;4.00;99.60;;;;;;6251851;22;20181;-59
2024/02/06 07:27:23;;;;;;;154.10;50.40;;;4.00;99.70;;;;;;6251775;22;20177;-59
2024/02/06 07:29:51;;;;;;;156.53;50.17;;;4.00;99.80;;;;;;6250627;22;20202;-59
2024/02/06 07:32:19;;;;;;;167.60;53.27;;;4.10;99.90;;;;;;6225829;22;20680;-59
2024/02/06 07:34:46;;;;;;;154.83;52.00;;;4.10;99.90;;;;;;6277229;22;20180;-59
2024/02/06 07:37:15;;;;;;;139.20;49.80;;;4.20;99.90;;;;;;6251176;22;20173;-59
2024/02/06 07:39:43;;;;;;;139.37;50.53;;;4.20;99.90;;;;;;6250520;22;20682;-59
2024/02/06 07:42:11;;;;;;;151.50;53.37;;;4.20;99.90;;;;;;6277881;22;20223;-59
2024/02/06 07:44:39;;;;;;;113.57;48.93;;;4.30;99.90;;;;;;6277420;22;20230;-59
2024/02/06 07:47:07;;;;;;;106.33;50.60;;;4.40;99.90;;;;;;6277651;22;20208;-59
2024/02/06 07:49:35;;;;;;;107.53;51.83;;;4.40;99.90;;;;;;6251504;22;20172;-59
2024/02/06 07:52:04;;;;;;;106.77;51.43;;;4.50;99.90;;;;;;6251323;22;20173;-58
2024/02/06 07:54:33;;;;;;;111.33;48.77;;;4.60;99.90;;;;;;6250629;22;20203;-59
2024/02/06 07:57:01;;;;;;;117.60;49.37;;;4.60;99.90;;;;;;6250809;22;20193;-58
2024/02/06 07:59:29;;;;;;;101.10;51.30;;;4.70;99.90;;;;;;6251175;22;20462;-59
2024/02/06 08:01:57;;;;;;;106.33;48.20;;;4.80;99.90;;;;;;6251391;22;20370;-58
2024/02/06 08:04:24;;;;;;;90.13;49.80;;;4.80;99.90;;;;;;6225372;22;20255;-59
2024/02/06 08:06:52;;;;;;;79.13;50.27;;;4.90;99.90;;;;;;6225768;22;20216;-59
2024/02/06 08:09:20;;;;;;;88.50;51.93;;;5.00;99.90;;;;;;6277385;22;20180;-59
2024/02/06 08:11:48;;;;;;;78.13;48.43;;;5.10;99.90;;;;;;6277995;22;20260;-59
2024/02/06 08:14:16;;;;;;;67.90;48.87;;;5.10;99.90;;;;;;6226030;22;20487;-59
2024/02/06 08:16:45;;;;;;;67.43;47.20;;;5.20;99.90;;;;;;6251319;22;20203;-59
2024/02/06 08:19:13;;;;;;;66.00;45.27;;;5.30;99.90;;;;;;6252107;22;20256;-59
2024/02/06 08:21:41;;;;;;;70.90;49.53;;;5.40;99.90;;;;;;6253237;22;20229;-59
2024/02/06 08:24:09;;;;;;;67.00;46.27;;;5.50;99.90;;;;;;6252931;22;20177;-59
2024/02/06 08:26:38;;;;;;;66.13;45.77;;;5.60;99.90;;;;;;6253331;22;20252;-59
2024/02/06 08:29:06;;;;;;;62.07;42.97;;;5.70;99.90;;;;;;6253027;22;20165;-59
2024/02/06 08:31:34;;;;;;;61.37;41.73;;;5.70;99.90;;;;;;6250898;22;20243;-58
2024/02/06 08:34:02;;;;;;;61.00;41.83;;;5.90;99.90;;;;;;6279094;22;20173;-58
2024/02/06 08:36:29;;;;;;;54.20;40.73;;;6.00;99.90;;;;;;6279190;22;20161;-59
2024/02/06 08:38:57;;;;;;;55.40;41.87;;;6.10;99.90;;;;;;6252563;22;20174;-59
2024/02/06 08:41:28;;;;;;;56.37;41.20;;;6.20;99.90;;;;;;6253242;22;20193;-59
2024/02/06 08:43:57;;;;;;;56.40;40.63;;;6.30;99.90;;;;;;6228400;22;20183;-59
2024/02/06 08:46:27;;;;;;;52.73;38.53;;;6.50;99.90;;;;;;6279210;22;20262;-59
2024/02/06 08:48:56;;;;;;;52.00;38.97;;;6.70;99.90;;;;;;6253620;22;20204;-59
2024/02/06 08:51:24;;;;;;;51.30;38.70;;;6.80;99.90;;;;;;6277812;22;20598;-59
2024/02/06 08:53:51;;;;;;;50.13;37.67;;;7.00;99.90;;;;;;6252745;22;20177;-59
2024/02/06 08:56:21;;;;;;;52.27;39.40;;;7.20;99.90;;;;;;6252873;22;20184;-59
2024/02/06 08:58:49;;;;;;;60.23;39.60;;;7.30;99.80;;;;;;6252773;22;20237;-59
2024/02/06 09:01:18;;;;;;;52.17;39.10;;;7.40;99.60;;;;;;6279125;22;20240;-59
2024/02/06 09:03:46;;;;;;;53.70;39.80;;;7.60;99.60;;;;;;6202486;22;20185;-59
2024/02/06 09:06:14;;;;;;;61.43;41.70;;;7.70;99.40;;;;;;6252553;22;20641;-59
2024/02/06 09:08:43;;;;;;;101.57;44.33;;;7.80;99.30;;;;;;6252688;22;20184;-59
2024/02/06 09:11:11;;;;;;;119.37;44.10;;;7.90;99.10;;;;;;6252707;22;20200;-59
2024/02/06 09:13:38;;;;;;;66.37;42.20;;;8.00;98.90;;;;;;6279164;22;20198;-59
2024/02/06 09:16:06;;;;;;;58.20;42.27;;;8.00;98.80;;;;;;6279096;22;20188;-59
2024/02/06 09:18:36;;;;;;;64.13;44.50;;;8.10;98.80;;;;;;6252418;22;20203;-59
2024/02/06 09:21:04;;;;;;;56.87;41.47;;;8.20;98.80;;;;;;6279257;22;20180;-59
2024/02/06 09:23:34;;;;;;;67.27;46.33;;;8.40;98.90;;;;;;6252660;22;20179;-59
2024/02/06 09:26:02;;;;;;;68.53;45.30;;;8.50;98.90;;;;;;6252577;22;20195;-59
2024/02/06 09:28:30;;;;;;;68.73;46.60;;;8.70;98.80;;;;;;6278884;22;20177;-59
2024/02/06 09:30:58;;;;;;;66.23;45.07;;;8.90;98.70;;;;;;6226408;22;20180;-58
2024/02/06 09:33:25;;;;;;;77.00;47.17;;;9.00;98.50;;;;;;6278892;22;20206;-59
2024/02/06 09:35:53;;;;;;;74.17;48.27;;;9.10;98.40;;;;;;6278280;22;20176;-59
2024/02/06 09:38:20;;;;;;;73.10;47.83;;;9.30;98.30;;;;;;6279106;22;20172;-59
2024/02/06 09:40:50;;;;;;;74.10;48.27;;;9.40;98.30;;;;;;6278600;22;20203;-58
2024/02/06 09:43:19;;;;;;;81.73;50.43;;;9.60;98.30;;;;;;6278466;22;20180;-59
2024/02/06 09:45:47;;;;;;;71.33;48.90;;;9.70;98.20;;;;;;6278382;22;20455;-59
2024/02/06 09:48:15;;;;;;;78.87;49.40;;;9.90;98.10;;;;;;6252420;22;20172;-58
2024/02/06 09:50:43;;;;;;;79.67;51.30;;;10.00;98.00;;;;;;6278294;22;20473;-58
2024/02/06 09:53:12;;;;;;;73.70;50.83;;;10.20;97.90;;;;;;6252231;22;20183;-58
2024/02/06 09:55:46;;;;;;;80.70;54.43;;;10.30;97.80;;;;;;6252458;22;20176;-58
2024/02/06 09:58:16;;;;;;;83.20;53.77;;;10.40;97.80;;;;;;6278834;22;20182;-58
2024/02/06 10:00:47;;;;;;;83.90;54.53;;;10.50;97.70;;;;;;6252636;22;20183;-58
2024/02/06 10:03:30;;;;;;;81.70;52.40;;;10.60;97.60;;;;;;6226985;22;20171;-58
2024/02/06 10:06:07;;;;;;;83.03;52.73;;;10.70;97.50;;;;;;6227159;22;20249;-57
2024/02/06 10:08:35;;;;;;;90.87;55.30;;;10.90;97.40;;;;;;6227905;22;20172;-59
2024/02/06 10:11:06;;;;;;;89.13;55.57;;;11.00;97.30;;;;;;6278446;22;20519;-58
2024/02/06 10:13:35;;;;;;;92.77;57.50;;;11.10;97.20;;;;;;6252180;22;20211;-58
2024/02/06 10:16:03;;;;;;;86.90;55.70;;;11.30;97.10;;;;;;6251829;22;20598;-58
2024/02/06 10:18:31;;;;;;;88.17;57.37;;;11.40;97.00;;;;;;6278330;22;20494;-58
2024/02/06 10:20:59;;;;;;;87.80;60.00;;;11.50;96.80;;;;;;6251141;22;20181;-59
2024/02/06 10:23:27;;;;;;;96.37;59.00;;;11.50;96.60;;;;;;6251925;22;20177;-58
2024/02/06 10:26:03;;;;;;;97.77;58.87;;;11.60;96.50;;;;;;6251374;22;20176;-58
2024/02/06 10:28:31;;;;;;;91.47;58.87;;;11.80;96.30;;;;;;6227446;22;20160;-58
2024/02/06 10:30:59;;;;;;;91.80;62.10;;;11.80;96.30;;;;;;6278355;22;20175;-59
2024/02/06 10:33:27;;;;;;;96.93;60.33;;;12.00;96.30;;;;;;6252574;22;20169;-58
2024/02/06 10:36:01;;;;;;;100.60;62.27;;;12.00;96.20;;;;;;6277887;22;20219;-58
2024/02/06 10:38:29;;;;;;;104.73;63.17;;;12.10;96.00;;;;;;6251833;22;20540;-58
2024/02/06 10:40:57;;;;;;;103.17;64.17;;;12.20;96.00;;;;;;6251667;22;20208;-58
2024/02/06 10:43:43;;;;;;;93.93;59.93;;;12.30;95.90;;;;;;6229803;22;20240;-58
2024/02/06 10:46:21;;;;;;;92.40;60.17;;;12.50;95.80;;;;;;6278392;22;20188;-58
2024/02/06 10:48:52;;;;;;;94.60;57.60;;;12.50;95.40;;;;;;6251877;22;20615;-58
2024/02/06 10:51:23;;;;;;;95.83;59.30;;;12.60;95.30;;;;;;6278284;22;20153;-59
2024/02/06 10:53:57;;;;;;;87.70;59.63;;;12.60;95.20;;;;;;6227228;22;20173;-59
2024/02/06 10:56:26;;;;;;;90.00;58.03;;;12.70;95.10;;;;;;6278272;22;20531;-58
2024/02/06 10:58:57;;;;;;;89.73;59.57;;;12.70;94.90;;;;;;6277693;22;20203;-58
2024/02/06 11:01:36;;;;;;;90.97;57.47;;;12.80;94.90;;;;;;6277899;22;20161;-58
2024/02/06 11:04:10;;;;;;;93.97;59.07;;;12.90;95.00;;;;;;6250920;22;20564;-58
2024/02/06 11:06:52;;;;;;;89.67;58.40;;;12.90;94.80;;;;;;6278243;22;20219;-58
2024/02/06 11:09:24;;;;;;;82.90;54.83;;;12.90;94.80;;;;;;6226373;22;20153;-59
2024/02/06 11:11:58;;;;;;;80.47;53.93;;;12.90;94.60;;;;;;6278476;22;20564;-59
2024/02/06 11:14:28;;;;;;;76.13;52.07;;;13.00;94.70;;;;;;6250771;22;20464;-57
2024/02/06 11:16:59;;;;;;;80.67;52.70;;;13.10;94.60;;;;;;6251875;22;20174;-58
2024/02/06 11:19:45;;;;;;;85.07;55.20;;;13.10;94.60;;;;;;6277748;22;20167;-59
2024/02/06 11:22:24;;;;;;;74.73;52.10;;;13.20;94.50;;;;;;6252404;22;20230;-59
2024/02/06 11:24:54;;;;;;;78.67;52.07;;;13.30;94.50;;;;;;6227571;22;20173;-59
2024/02/06 11:27:22;;;;;;;64.33;45.13;;;13.30;94.40;;;;;;6226481;22;20207;-59
2024/02/06 11:29:50;;;;;;;64.47;43.13;;;13.40;94.30;;;;;;6278398;22;20184;-59
2024/02/06 11:32:18;;;;;;;60.80;42.60;;;13.50;94.30;;;;;;6226043;22;20177;-59
2024/02/06 11:34:54;;;;;;;64.57;44.30;;;13.50;93.90;;;;;;6278049;22;20227;-60
2024/02/06 11:37:27;;;;;;;57.17;42.13;;;13.60;93.70;;;;;;6250902;22;20177;-59
2024/02/06 11:40:15;;;;;;;69.93;44.13;;;13.70;93.70;;;;;;6277630;22;20288;-59
2024/02/06 11:42:43;;;;;;;63.77;44.90;;;13.70;93.60;;;;;;6276565;22;20184;-60
2024/02/06 11:45:18;;;;;;;70.07;44.43;;;13.80;93.50;;;;;;6277307;22;20176;-59
2024/02/06 11:47:57;;;;;;;65.07;44.17;;;13.90;93.30;;;;;;6250826;22;20199;-59
2024/02/06 11:50:34;;;;;;;61.23;43.73;;;13.90;93.20;;;;;;6250638;22;20186;-59
2024/02/06 11:53:14;;;;;;;65.90;42.53;;;14.00;93.20;;;;;;6250791;22;20184;-59
2024/02/06 11:55:44;;;;;;;68.40;45.10;;;14.00;93.20;;;;;;6253858;22;20186;-59
2024/02/06 11:58:13;;;;;;;60.20;42.53;;;14.10;93.10;;;;;;6279419;22;20176;-59
2024/02/06 12:00:41;;;;;;;63.43;43.10;;;14.10;93.00;;;;;;6253069;22;20184;-59
2024/02/06 12:03:12;;;;;;;64.10;41.50;;;14.20;92.80;;;;;;6227865;22;20188;-59
2024/02/06 12:05:41;;;;;;;60.77;41.90;;;14.20;92.70;;;;;;6279847;22;20240;-59
2024/02/06 12:08:19;;;;;;;55.87;39.90;;;14.30;92.60;;;;;;6227676;22;20189;-59
2024/02/06 12:10:49;;;;;;;62.97;42.97;;;14.40;92.50;;;;;;6252709;22;20188;-59
2024/02/06 12:13:21;;;;;;;62.50;40.43;;;14.40;92.50;;;;;;6279027;22;20173;-59
2024/02/06 12:15:50;;;;;;;58.50;38.77;;;14.50;92.30;;;;;;6279523;22;20253;-59
2024/02/06 12:18:20;;;;;;;52.87;37.90;;;14.60;92.10;;;;;;6227313;22;20193;-59
2024/02/06 12:20:48;;;;;;;59.47;42.30;;;14.70;91.90;;;;;;6252406;22;20494;-59
2024/02/06 12:23:16;;;;;;;56.50;39.97;;;14.70;91.80;;;;;;6253384;22;20480;-59
2024/02/06 12:25:48;;;;;;;57.50;38.40;;;14.80;91.50;;;;;;6227502;22;20269;-59
2024/02/06 12:28:17;;;;;;;59.50;39.27;;;14.80;91.30;;;;;;6228076;22;20257;-59
2024/02/06 12:30:50;;;;;;;59.00;40.50;;;14.80;91.20;;;;;;6253205;22;20194;-59
2024/02/06 12:33:18;;;;;;;61.53;38.63;;;14.80;91.10;;;;;;6227383;22;20573;-59
2024/02/06 12:35:47;;;;;;;54.80;37.63;;;14.90;91.10;;;;;;6252874;22;20197;-59